• Join FlightAware (Why Join?)
  • Login
  • US Flag 
09:06PM EST


 

Airport Tracker/Info


-or-


 

Live Flight TrackerFlight Track Log ✈ AMF3146 ✈ 26-Apr-2012 ✈ KGPT - KPNS

Flight Track Log - Related Links

Times and Time Zones

All times are in EDT time to prevent confusion due to time zone crossing. See the AMF3146 flight status page for this flight to view local times or setup timezone preferences in your user account.

Time Position Orientation Groundspeed Altitude Reporting Facility
EDT Latitude Longitude Course Direction KTS MPH feet Rate Location/Type
08:41PM 30.4141 -88.9778 68° East  Level FlightAware Approximate
08:42PM 30.4196 -88.9040 67° East  Level FlightAware Approximate
08:43PM 30.4249 -88.8302 66° East  Level FlightAware Approximate
08:44PM 30.4303 -88.7564 64° Northeast  Level FlightAware Approximate
08:45PM 30.4356 -88.6825 63° Northeast  Level FlightAware Approximate
08:46PM 30.4409 -88.6087 60° Northeast  Level FlightAware Approximate
08:47PM 30.4461 -88.5348 58° Northeast  Level FlightAware Approximate
08:48PM 30.4513 -88.4610 55° Northeast  Level FlightAware Approximate
08:49PM 30.4564 -88.3871 51° Northeast  Level FlightAware Approximate
08:50PM 30.4615 -88.3132 46° Northeast  Level FlightAware Approximate
08:51PM 30.4666 -88.2393 39° Northeast  Level FlightAware Approximate
08:52PM 30.4716 -88.1654 32° Northeast  Level FlightAware Approximate
08:53PM 30.4766 -88.0915 22° Northeast  Level FlightAware Approximate
08:54PM 30.4815 -88.0176 10° North  Level FlightAware Approximate
08:56PM 30.7542 -87.9636 87° East 251 289 9,100  Level Jacksonville Center
08:57PM 30.7578 -87.8719 87° East 252 290 9,000  Descending Jacksonville Center
08:58PM 30.7608 -87.7947 87° East 249 287 9,100  Climbing Jacksonville Center
08:59PM 30.7642 -87.7103 97° East 249 287 9,000 -60 Descending Jacksonville Center
09:00PM 30.7547 -87.6253 125° Southeast 247 284 9,000 -660 Level Jacksonville Center
09:01PM 30.7175 -87.5631 124° Southeast 250 288 7,600 -1,500 Descending Jacksonville Center
09:02PM 30.6742 -87.4886 122° Southeast 268 308 6,000 -1,800 Descending Jacksonville Center
09:03PM 30.6292 -87.4042 125° Southeast 268 308 3,900 -1,620 Descending Jacksonville Center
09:04PM 30.5858 -87.3322 125° Southeast 262 302 2,500 -1,080 Descending Jacksonville Center
09:06PM 30.5444 -87.2628 126° Southeast 232 267 1,700 -660 Descending Jacksonville Center
09:07PM 30.5128 -87.2131 126° Southeast 163 188 1,200 -480 Descending Jacksonville Center